sensor_id;sensor_type;location;lat;lon;timestamp;pressure;altitude;pressure_sealevel;temperature;humidity
2268;BME280;11052;43.338;25.502;2023-05-22T00:00:21;100440.19;;;16.00;100.00
2268;BME280;11052;43.338;25.502;2023-05-22T00:02:50;100442.56;;;16.05;100.00
2268;BME280;11052;43.338;25.502;2023-05-22T00:05:18;100431.03;;;16.09;100.00
2268;BME280;11052;43.338;25.502;2023-05-22T00:07:45;100436.25;;;16.09;100.00
2268;BME280;11052;43.338;25.502;2023-05-22T00:10:12;100439.94;;;16.05;100.00
2268;BME280;11052;43.338;25.502;2023-05-22T00:12:39;100442.03;;;15.98;100.00
2268;BME280;11052;43.338;25.502;2023-05-22T00:15:07;100441.41;;;15.93;100.00
2268;BME280;11052;43.338;25.502;2023-05-22T00:17:35;100439.09;;;15.87;100.00
2268;BME280;11052;43.338;25.502;2023-05-22T00:20:06;100433.41;;;15.79;100.00
2268;BME280;11052;43.338;25.502;2023-05-22T00:22:34;100431.16;;;15.71;100.00
2268;BME280;11052;43.338;25.502;2023-05-22T00:25:01;100428.22;;;15.60;100.00
2268;BME280;11052;43.338;25.502;2023-05-22T00:27:28;100431.59;;;15.62;100.00
2268;BME280;11052;43.338;25.502;2023-05-22T00:29:55;100438.13;;;15.54;100.00
2268;BME280;11052;43.338;25.502;2023-05-22T00:32:22;100433.03;;;15.51;100.00
2268;BME280;11052;43.338;25.502;2023-05-22T00:34:49;100437.56;;;15.47;100.00
2268;BME280;11052;43.338;25.502;2023-05-22T00:37:18;100439.50;;;15.44;100.00
2268;BME280;11052;43.338;25.502;2023-05-22T00:39:45;100438.00;;;15.38;100.00
2268;BME280;11052;43.338;25.502;2023-05-22T00:42:13;100437.03;;;15.40;100.00
2268;BME280;11052;43.338;25.502;2023-05-22T00:44:40;100433.50;;;15.41;100.00
2268;BME280;11052;43.338;25.502;2023-05-22T00:47:07;100438.84;;;15.38;100.00
2268;BME280;11052;43.338;25.502;2023-05-22T00:49:34;100444.94;;;15.01;100.00
2268;BME280;11052;43.338;25.502;2023-05-22T00:52:02;100436.56;;;14.95;100.00
2268;BME280;11052;43.338;25.502;2023-05-22T00:54:31;100431.53;;;14.90;100.00
2268;BME280;11052;43.338;25.502;2023-05-22T00:56:58;100435.41;;;15.00;100.00
2268;BME280;11052;43.338;25.502;2023-05-22T00:59:28;100436.63;;;14.93;100.00
2268;BME280;11052;43.338;25.502;2023-05-22T01:01:55;100435.06;;;14.89;100.00
2268;BME280;11052;43.338;25.502;2023-05-22T01:04:24;100432.47;;;14.89;100.00
2268;BME280;11052;43.338;25.502;2023-05-22T01:06:52;100427.59;;;14.82;100.00
2268;BME280;11052;43.338;25.502;2023-05-22T01:09:19;100428.38;;;14.84;100.00
2268;BME280;11052;43.338;25.502;2023-05-22T01:11:54;100428.38;;;14.84;100.00
2268;BME280;11052;43.338;25.502;2023-05-22T01:14:30;100433.72;;;14.81;100.00
2268;BME280;11052;43.338;25.502;2023-05-22T01:17:05;100429.41;;;14.80;100.00
2268;BME280;11052;43.338;25.502;2023-05-22T01:19:51;100433.16;;;14.74;100.00
2268;BME280;11052;43.338;25.502;2023-05-22T01:25:52;100431.84;;;14.65;100.00
2268;BME280;11052;43.338;25.502;2023-05-22T01:28:36;100431.97;;;14.62;100.00
2268;BME280;11052;43.338;25.502;2023-05-22T01:31:10;100430.53;;;14.55;100.00
2268;BME280;11052;43.338;25.502;2023-05-22T01:33:44;100436.59;;;14.56;100.00
2268;BME280;11052;43.338;25.502;2023-05-22T01:36:13;100436.16;;;14.46;100.00
2268;BME280;11052;43.338;25.502;2023-05-22T01:38:40;100439.63;;;14.47;100.00
2268;BME280;11052;43.338;25.502;2023-05-22T01:41:08;100430.16;;;14.44;100.00
2268;BME280;11052;43.338;25.502;2023-05-22T01:43:35;100431.44;;;14.34;100.00
2268;BME280;11052;43.338;25.502;2023-05-22T01:46:03;100432.88;;;14.21;100.00
2268;BME280;11052;43.338;25.502;2023-05-22T01:48:32;100432.88;;;14.21;100.00
2268;BME280;11052;43.338;25.502;2023-05-22T01:51:04;100426.09;;;14.17;100.00
2268;BME280;11052;43.338;25.502;2023-05-22T01:53:39;100427.81;;;14.18;100.00
2268;BME280;11052;43.338;25.502;2023-05-22T01:56:13;100424.47;;;14.14;100.00
2268;BME280;11052;43.338;25.502;2023-05-22T01:58:45;100429.94;;;14.08;100.00
2268;BME280;11052;43.338;25.502;2023-05-22T02:01:16;100420.75;;;13.99;100.00
2268;BME280;11052;43.338;25.502;2023-05-22T02:03:48;100430.78;;;13.88;100.00
2268;BME280;11052;43.338;25.502;2023-05-22T02:06:21;100430.16;;;13.83;100.00
2268;BME280;11052;43.338;25.502;2023-05-22T02:08:50;100434.59;;;13.81;100.00
2268;BME280;11052;43.338;25.502;2023-05-22T02:11:19;100432.88;;;13.80;100.00
2268;BME280;11052;43.338;25.502;2023-05-22T02:13:48;100440.72;;;13.80;100.00
2268;BME280;11052;43.338;25.502;2023-05-22T02:16:16;100433.78;;;13.79;100.00
2268;BME280;11052;43.338;25.502;2023-05-22T02:18:47;100432.03;;;13.80;100.00
2268;BME280;11052;43.338;25.502;2023-05-22T02:21:15;100426.22;;;13.73;100.00
2268;BME280;11052;43.338;25.502;2023-05-22T02:23:42;100438.00;;;13.61;100.00
2268;BME280;11052;43.338;25.502;2023-05-22T02:26:09;100432.97;;;13.57;100.00
2268;BME280;11052;43.338;25.502;2023-05-22T02:28:36;100442.25;;;13.42;100.00
2268;BME280;11052;43.338;25.502;2023-05-22T02:31:04;100432.97;;;13.35;100.00
2268;BME280;11052;43.338;25.502;2023-05-22T02:33:31;100440.06;;;13.31;100.00
2268;BME280;11052;43.338;25.502;2023-05-22T02:35:59;100439.03;;;13.35;100.00
2268;BME280;11052;43.338;25.502;2023-05-22T02:38:26;100439.16;;;13.32;100.00
2268;BME280;11052;43.338;25.502;2023-05-22T02:40:53;100435.88;;;13.27;100.00
2268;BME280;11052;43.338;25.502;2023-05-22T02:43:20;100438.47;;;13.27;100.00
2268;BME280;11052;43.338;25.502;2023-05-22T02:45:48;100440.13;;;13.30;100.00
2268;BME280;11052;43.338;25.502;2023-05-22T02:48:15;100438.41;;;13.29;100.00
2268;BME280;11052;43.338;25.502;2023-05-22T02:50:42;100441.09;;;13.27;100.00
2268;BME280;11052;43.338;25.502;2023-05-22T02:53:10;100436.00;;;13.24;100.00
2268;BME280;11052;43.338;25.502;2023-05-22T02:55:38;100444.72;;;13.23;100.00
2268;BME280;11052;43.338;25.502;2023-05-22T02:58:06;100443.81;;;13.24;100.00
2268;BME280;11052;43.338;25.502;2023-05-22T03:00:35;100447.25;;;13.25;100.00
2268;BME280;11052;43.338;25.502;2023-05-22T03:03:02;100435.19;;;13.22;100.00
2268;BME280;11052;43.338;25.502;2023-05-22T03:05:30;100428.97;;;13.26;100.00
2268;BME280;11052;43.338;25.502;2023-05-22T03:07:57;100437.69;;;13.25;100.00
2268;BME280;11052;43.338;25.502;2023-05-22T03:10:26;100428.97;;;13.26;100.00
2268;BME280;11052;43.338;25.502;2023-05-22T03:12:53;100428.00;;;13.29;100.00
2268;BME280;11052;43.338;25.502;2023-05-22T03:15:20;100436.00;;;13.24;100.00
2268;BME280;11052;43.338;25.502;2023-05-22T03:17:47;100427.63;;;13.16;100.00
2268;BME280;11052;43.338;25.502;2023-05-22T03:20:14;100432.53;;;13.24;100.00
2268;BME280;11052;43.338;25.502;2023-05-22T03:22:42;100434.25;;;13.25;100.00
2268;BME280;11052;43.338;25.502;2023-05-22T03:25:09;100430.91;;;13.21;100.00
2268;BME280;11052;43.338;25.502;2023-05-22T03:27:38;100436.78;;;13.26;100.00
2268;BME280;11052;43.338;25.502;2023-05-22T03:30:07;100441.75;;;13.32;100.00
2268;BME280;11052;43.338;25.502;2023-05-22T03:32:34;100438.19;;;13.35;100.00
2268;BME280;11052;43.338;25.502;2023-05-22T03:35:04;100438.66;;;13.44;100.00
2268;BME280;11052;43.338;25.502;2023-05-22T03:37:31;100437.63;;;13.49;100.00
2268;BME280;11052;43.338;25.502;2023-05-22T03:39:58;100437.69;;;13.47;100.00
2268;BME280;11052;43.338;25.502;2023-05-22T03:42:26;100448.66;;;13.55;100.00
2268;BME280;11052;43.338;25.502;2023-05-22T03:44:54;100435.88;;;13.71;100.00
2268;BME280;11052;43.338;25.502;2023-05-22T03:47:21;100434.00;;;13.74;100.00
2268;BME280;11052;43.338;25.502;2023-05-22T03:49:48;100435.94;;;13.90;100.00
2268;BME280;11052;43.338;25.502;2023-05-22T03:52:16;100433.78;;;13.99;100.00
2268;BME280;11052;43.338;25.502;2023-05-22T03:54:43;100441.94;;;14.12;100.00
2268;BME280;11052;43.338;25.502;2023-05-22T03:57:10;100444.94;;;14.23;100.00
2268;BME280;11052;43.338;25.502;2023-05-22T03:59:37;100450.75;;;14.30;100.00
2268;BME280;11052;43.338;25.502;2023-05-22T04:02:05;100454.41;;;14.46;100.00
2268;BME280;11052;43.338;25.502;2023-05-22T04:04:33;100455.66;;;14.58;100.00
2268;BME280;11052;43.338;25.502;2023-05-22T04:07:03;100451.41;;;14.74;100.00
2268;BME280;11052;43.338;25.502;2023-05-22T04:09:33;100446.50;;;14.87;100.00
2268;BME280;11052;43.338;25.502;2023-05-22T04:12:01;100440.00;;;14.95;100.00
2268;BME280;11052;43.338;25.502;2023-05-22T04:14:28;100446.22;;;14.93;100.00
2268;BME280;11052;43.338;25.502;2023-05-22T04:16:55;100441.69;;;14.96;100.00
2268;BME280;11052;43.338;25.502;2023-05-22T04:19:23;100440.78;;;15.16;100.00
2268;BME280;11052;43.338;25.502;2023-05-22T04:21:53;100450.72;;;15.27;100.00
2268;BME280;11052;43.338;25.502;2023-05-22T04:24:20;100449.16;;;15.41;100.00
2268;BME280;11052;43.338;25.502;2023-05-22T04:26:47;100456.06;;;15.61;100.00
2268;BME280;11052;43.338;25.502;2023-05-22T04:29:14;100455.84;;;15.83;100.00
2268;BME280;11052;43.338;25.502;2023-05-22T04:31:44;100456.41;;;16.07;100.00
2268;BME280;11052;43.338;25.502;2023-05-22T04:34:14;100461.19;;;16.16;100.00
2268;BME280;11052;43.338;25.502;2023-05-22T04:36:44;100451.41;;;16.20;100.00
2268;BME280;11052;43.338;25.502;2023-05-22T04:39:12;100449.31;;;16.44;100.00
2268;BME280;11052;43.338;25.502;2023-05-22T04:41:39;100454.97;;;16.69;100.00
2268;BME280;11052;43.338;25.502;2023-05-22T04:44:06;100448.91;;;16.84;100.00
2268;BME280;11052;43.338;25.502;2023-05-22T04:46:33;100445.81;;;16.93;100.00
2268;BME280;11052;43.338;25.502;2023-05-22T04:49:01;100444.44;;;16.86;100.00
2268;BME280;11052;43.338;25.502;2023-05-22T04:51:28;100443.44;;;16.89;100.00
2268;BME280;11052;43.338;25.502;2023-05-22T04:53:57;100449.88;;;17.30;100.00
2268;BME280;11052;43.338;25.502;2023-05-22T04:56:24;100448.31;;;17.42;100.00
2268;BME280;11052;43.338;25.502;2023-05-22T04:58:52;100449.31;;;17.55;100.00
2268;BME280;11052;43.338;25.502;2023-05-22T05:01:20;100446.28;;;17.79;100.00
2268;BME280;11052;43.338;25.502;2023-05-22T05:03:48;100443.13;;;17.88;100.00
2268;BME280;11052;43.338;25.502;2023-05-22T05:06:15;100445.91;;;17.85;100.00
2268;BME280;11052;43.338;25.502;2023-05-22T05:08:42;100452.28;;;17.81;100.00
2268;BME280;11052;43.338;25.502;2023-05-22T05:11:12;100454.78;;;17.98;100.00
2268;BME280;11052;43.338;25.502;2023-05-22T05:13:39;100450.94;;;18.04;100.00
2268;BME280;11052;43.338;25.502;2023-05-22T05:16:07;100449.38;;;18.15;100.00
2268;BME280;11052;43.338;25.502;2023-05-22T05:18:34;100448.84;;;18.53;100.00
2268;BME280;11052;43.338;25.502;2023-05-22T05:21:01;100443.63;;;18.81;100.00
2268;BME280;11052;43.338;25.502;2023-05-22T05:23:28;100450.38;;;18.99;100.00
2268;BME280;11052;43.338;25.502;2023-05-22T05:25:57;100455.25;;;19.06;100.00
2268;BME280;11052;43.338;25.502;2023-05-22T05:28:27;100459.44;;;19.08;100.00
2268;BME280;11052;43.338;25.502;2023-05-22T05:30:54;100462.59;;;19.27;100.00
2268;BME280;11052;43.338;25.502;2023-05-22T05:33:22;100458.44;;;19.38;100.00
2268;BME280;11052;43.338;25.502;2023-05-22T05:35:49;100456.94;;;19.33;100.00
2268;BME280;11052;43.338;25.502;2023-05-22T05:38:17;100465.28;;;19.54;100.00
2268;BME280;11052;43.338;25.502;2023-05-22T05:40:44;100449.25;;;19.72;100.00
2268;BME280;11052;43.338;25.502;2023-05-22T05:43:12;100458.31;;;19.80;100.00
2268;BME280;11052;43.338;25.502;2023-05-22T05:45:41;100461.00;;;20.06;100.00
2268;BME280;11052;43.338;25.502;2023-05-22T05:48:08;100453.84;;;20.20;100.00
2268;BME280;11052;43.338;25.502;2023-05-22T05:50:36;100450.00;;;20.39;100.00
2268;BME280;11052;43.338;25.502;2023-05-22T05:53:03;100449.28;;;20.49;100.00
2268;BME280;11052;43.338;25.502;2023-05-22T05:55:30;100456.13;;;20.39;100.00
2268;BME280;11052;43.338;25.502;2023-05-22T05:57:58;100464.06;;;20.25;100.00
2268;BME280;11052;43.338;25.502;2023-05-22T06:00:25;100466.34;;;20.44;100.00
2268;BME280;11052;43.338;25.502;2023-05-22T06:02:53;100468.44;;;20.77;100.00
2268;BME280;11052;43.338;25.502;2023-05-22T06:05:21;100469.66;;;20.84;100.00
2268;BME280;11052;43.338;25.502;2023-05-22T06:07:48;100465.91;;;20.75;100.00
2268;BME280;11052;43.338;25.502;2023-05-22T06:10:15;100465.50;;;20.56;100.00
2268;BME280;11052;43.338;25.502;2023-05-22T06:12:42;100455.81;;;20.69;100.00
2268;BME280;11052;43.338;25.502;2023-05-22T06:15:09;100462.97;;;20.80;100.00
2268;BME280;11052;43.338;25.502;2023-05-22T06:17:38;100466.88;;;21.23;100.00
2268;BME280;11052;43.338;25.502;2023-05-22T06:20:07;100465.78;;;21.39;100.00
2268;BME280;11052;43.338;25.502;2023-05-22T06:22:35;100468.28;;;21.53;100.00
2268;BME280;11052;43.338;25.502;2023-05-22T06:25:02;100463.59;;;21.56;100.00
2268;BME280;11052;43.338;25.502;2023-05-22T06:27:29;100453.03;;;21.80;100.00
2268;BME280;11052;43.338;25.502;2023-05-22T06:29:57;100461.38;;;22.33;100.00
2268;BME280;11052;43.338;25.502;2023-05-22T06:32:24;100460.31;;;22.69;100.00
2268;BME280;11052;43.338;25.502;2023-05-22T06:34:51;100455.38;;;22.65;100.00
2268;BME280;11052;43.338;25.502;2023-05-22T06:37:20;100451.09;;;22.86;100.00
2268;BME280;11052;43.338;25.502;2023-05-22T06:39:47;100446.88;;;23.17;100.00
2268;BME280;11052;43.338;25.502;2023-05-22T06:42:14;100447.69;;;23.17;100.00
2268;BME280;11052;43.338;25.502;2023-05-22T06:44:41;100448.69;;;23.05;100.00
2268;BME280;11052;43.338;25.502;2023-05-22T06:47:09;100446.41;;;23.44;100.00
2268;BME280;11052;43.338;25.502;2023-05-22T06:49:36;100443.53;;;24.11;100.00
2268;BME280;11052;43.338;25.502;2023-05-22T06:52:03;100447.44;;;24.58;100.00
2268;BME280;11052;43.338;25.502;2023-05-22T06:54:32;100445.78;;;24.67;100.00
2268;BME280;11052;43.338;25.502;2023-05-22T06:56:59;100447.88;;;24.63;100.00
2268;BME280;11052;43.338;25.502;2023-05-22T06:59:29;100448.06;;;25.02;100.00
2268;BME280;11052;43.338;25.502;2023-05-22T07:01:56;100444.44;;;25.22;100.00
2268;BME280;11052;43.338;25.502;2023-05-22T07:04:23;100446.59;;;24.88;98.22
2268;BME280;11052;43.338;25.502;2023-05-22T07:06:51;100448.81;;;24.83;96.64
2268;BME280;11052;43.338;25.502;2023-05-22T07:09:18;100446.31;;;24.91;90.97
2268;BME280;11052;43.338;25.502;2023-05-22T07:11:47;100453.75;;;24.67;87.31
2268;BME280;11052;43.338;25.502;2023-05-22T07:14:14;100449.38;;;24.26;91.54
2268;BME280;11052;43.338;25.502;2023-05-22T07:16:42;100452.53;;;24.50;89.55
2268;BME280;11052;43.338;25.502;2023-05-22T07:19:09;100449.88;;;24.71;78.54
2268;BME280;11052;43.338;25.502;2023-05-22T07:21:37;100453.47;;;24.39;86.50
2268;BME280;11052;43.338;25.502;2023-05-22T07:24:04;100449.91;;;24.29;83.46
2268;BME280;11052;43.338;25.502;2023-05-22T07:26:34;100454.13;;;24.32;80.55
2268;BME280;11052;43.338;25.502;2023-05-22T07:29:03;100458.06;;;24.16;81.22
2268;BME280;11052;43.338;25.502;2023-05-22T07:31:30;100448.41;;;24.57;80.12
2268;BME280;11052;43.338;25.502;2023-05-22T07:33:58;100445.06;;;25.45;83.21
2268;BME280;11052;43.338;25.502;2023-05-22T07:36:26;100448.88;;;25.81;80.00
2268;BME280;11052;43.338;25.502;2023-05-22T07:38:53;100447.81;;;26.30;84.71
2268;BME280;11052;43.338;25.502;2023-05-22T07:41:21;100457.50;;;26.78;76.49
2268;BME280;11052;43.338;25.502;2023-05-22T07:43:48;100442.28;;;26.70;69.72
2268;BME280;11052;43.338;25.502;2023-05-22T07:46:17;100441.31;;;26.62;78.28
2268;BME280;11052;43.338;25.502;2023-05-22T07:48:44;100432.25;;;26.55;78.66
2268;BME280;11052;43.338;25.502;2023-05-22T07:51:11;100443.91;;;26.25;77.42
2268;BME280;11052;43.338;25.502;2023-05-22T07:53:39;100434.28;;;25.46;74.40
2268;BME280;11052;43.338;25.502;2023-05-22T07:56:06;100434.25;;;24.77;76.48
2268;BME280;11052;43.338;25.502;2023-05-22T07:58:33;100440.97;;;25.12;77.83
2268;BME280;11052;43.338;25.502;2023-05-22T08:01:01;100430.66;;;25.47;79.42
2268;BME280;11052;43.338;25.502;2023-05-22T08:03:30;100431.38;;;25.59;74.99
2268;BME280;11052;43.338;25.502;2023-05-22T08:05:58;100426.34;;;25.46;77.61
2268;BME280;11052;43.338;25.502;2023-05-22T08:08:25;100433.34;;;25.96;75.62
2268;BME280;11052;43.338;25.502;2023-05-22T08:10:52;100435.66;;;26.18;75.06
2268;BME280;11052;43.338;25.502;2023-05-22T08:13:19;100429.22;;;26.40;77.09
2268;BME280;11052;43.338;25.502;2023-05-22T08:15:46;100426.66;;;25.92;70.67
2268;BME280;11052;43.338;25.502;2023-05-22T08:18:13;100428.97;;;26.33;74.91
2268;BME280;11052;43.338;25.502;2023-05-22T08:20:42;100422.13;;;26.68;74.43
2268;BME280;11052;43.338;25.502;2023-05-22T08:23:10;100429.63;;;26.45;73.49
2268;BME280;11052;43.338;25.502;2023-05-22T08:25:37;100423.22;;;26.19;71.16
2268;BME280;11052;43.338;25.502;2023-05-22T08:28:05;100424.63;;;26.32;74.25
2268;BME280;11052;43.338;25.502;2023-05-22T08:30:32;100422.47;;;26.45;71.66
2268;BME280;11052;43.338;25.502;2023-05-22T08:32:59;100424.63;;;26.32;68.12
2268;BME280;11052;43.338;25.502;2023-05-22T08:35:26;100427.84;;;26.36;67.42
2268;BME280;11052;43.338;25.502;2023-05-22T08:37:54;100423.88;;;26.50;69.51
2268;BME280;11052;43.338;25.502;2023-05-22T08:40:23;100430.53;;;26.63;69.34
2268;BME280;11052;43.338;25.502;2023-05-22T08:42:53;100424.56;;;25.86;71.36
2268;BME280;11052;43.338;25.502;2023-05-22T08:45:22;100432.94;;;25.81;72.42
2268;BME280;11052;43.338;25.502;2023-05-22T08:47:51;100424.69;;;25.65;71.97
2268;BME280;11052;43.338;25.502;2023-05-22T08:50:21;100432.31;;;26.16;72.26
2268;BME280;11052;43.338;25.502;2023-05-22T08:52:51;100424.81;;;26.58;72.31
2268;BME280;11052;43.338;25.502;2023-05-22T08:55:20;100417.75;;;26.76;73.26
2268;BME280;11052;43.338;25.502;2023-05-22T08:57:48;100422.69;;;26.89;76.87
2268;BME280;11052;43.338;25.502;2023-05-22T09:00:18;100424.19;;;26.74;72.92
2268;BME280;11052;43.338;25.502;2023-05-22T09:02:45;100415.22;;;26.28;71.44
2268;BME280;11052;43.338;25.502;2023-05-22T09:05:13;100419.00;;;26.26;72.91
2268;BME280;11052;43.338;25.502;2023-05-22T09:07:42;100416.81;;;26.02;70.74
2268;BME280;11052;43.338;25.502;2023-05-22T09:10:09;100421.59;;;25.50;74.56
2268;BME280;11052;43.338;25.502;2023-05-22T09:13:02;100410.84;;;25.61;75.27
2268;BME280;11052;43.338;25.502;2023-05-22T09:15:30;100414.63;;;25.97;76.23
2268;BME280;11052;43.338;25.502;2023-05-22T09:17:58;100416.75;;;26.40;74.06
2268;BME280;11052;43.338;25.502;2023-05-22T09:20:25;100412.88;;;26.72;72.91
2268;BME280;11052;43.338;25.502;2023-05-22T09:22:52;100401.94;;;26.93;71.08
2268;BME280;11052;43.338;25.502;2023-05-22T09:25:20;100399.66;;;26.53;71.48
2268;BME280;11052;43.338;25.502;2023-05-22T09:27:49;100395.38;;;26.32;74.82
2268;BME280;11052;43.338;25.502;2023-05-22T09:30:17;100399.81;;;26.41;75.21
2268;BME280;11052;43.338;25.502;2023-05-22T09:32:45;100399.03;;;26.68;71.52
2268;BME280;11052;43.338;25.502;2023-05-22T09:35:14;100406.72;;;26.89;74.23
2268;BME280;11052;43.338;25.502;2023-05-22T09:37:42;100399.28;;;26.93;72.20
2268;BME280;11052;43.338;25.502;2023-05-22T09:40:11;100405.81;;;27.08;72.71
2268;BME280;11052;43.338;25.502;2023-05-22T09:42:42;100398.59;;;26.91;70.68
2268;BME280;11052;43.338;25.502;2023-05-22T09:45:11;100401.41;;;26.89;71.24
2268;BME280;11052;43.338;25.502;2023-05-22T09:47:38;100394.69;;;26.67;70.97
2268;BME280;11052;43.338;25.502;2023-05-22T09:50:07;100385.69;;;26.78;73.00
2268;BME280;11052;43.338;25.502;2023-05-22T09:52:36;100392.38;;;26.82;70.33
2268;BME280;11052;43.338;25.502;2023-05-22T09:55:04;100388.72;;;26.56;68.89
2268;BME280;11052;43.338;25.502;2023-05-22T09:57:40;100387.97;;;26.91;70.77
2268;BME280;11052;43.338;25.502;2023-05-22T10:00:11;100386.75;;;26.85;70.11
2268;BME280;11052;43.338;25.502;2023-05-22T10:02:44;100385.88;;;26.67;71.82
2268;BME280;11052;43.338;25.502;2023-05-22T10:05:12;100393.56;;;26.97;72.27
2268;BME280;11052;43.338;25.502;2023-05-22T10:07:47;100388.03;;;27.26;72.89
2268;BME280;11052;43.338;25.502;2023-05-22T10:10:17;100393.16;;;27.55;69.67
2268;BME280;11052;43.338;25.502;2023-05-22T10:12:50;100384.25;;;27.29;69.57
2268;BME280;11052;43.338;25.502;2023-05-22T10:15:20;100380.97;;;26.90;69.71
2268;BME280;11052;43.338;25.502;2023-05-22T10:17:48;100382.41;;;27.29;69.71
2268;BME280;11052;43.338;25.502;2023-05-22T10:20:16;100375.03;;;26.96;66.61
2268;BME280;11052;43.338;25.502;2023-05-22T10:22:43;100370.78;;;27.13;70.19
2268;BME280;11052;43.338;25.502;2023-05-22T10:25:12;100370.16;;;26.91;68.67
2268;BME280;11052;43.338;25.502;2023-05-22T10:27:39;100374.03;;;27.06;67.87
2268;BME280;11052;43.338;25.502;2023-05-22T10:30:18;100369.56;;;27.25;68.72
2268;BME280;11052;43.338;25.502;2023-05-22T10:32:51;100367.22;;;26.94;72.27
2268;BME280;11052;43.338;25.502;2023-05-22T10:35:27;100365.75;;;27.27;71.41
2268;BME280;11052;43.338;25.502;2023-05-22T10:38:07;100364.31;;;27.15;66.94
2268;BME280;11052;43.338;25.502;2023-05-22T10:40:39;100363.31;;;27.52;66.73
2268;BME280;11052;43.338;25.502;2023-05-22T10:43:07;100367.69;;;27.79;70.68
2268;BME280;11052;43.338;25.502;2023-05-22T10:45:34;100355.69;;;27.74;66.75
2268;BME280;11052;43.338;25.502;2023-05-22T10:48:04;100354.97;;;28.16;67.17
2268;BME280;11052;43.338;25.502;2023-05-22T10:50:31;100349.94;;;28.13;67.91
2268;BME280;11052;43.338;25.502;2023-05-22T10:53:17;100356.44;;;28.11;66.47
2268;BME280;11052;43.338;25.502;2023-05-22T10:55:48;100347.59;;;28.36;65.60
2268;BME280;11052;43.338;25.502;2023-05-22T10:58:15;100343.53;;;28.58;64.00
2268;BME280;11052;43.338;25.502;2023-05-22T11:00:43;100340.41;;;28.28;63.19
2268;BME280;11052;43.338;25.502;2023-05-22T11:03:11;100334.47;;;27.91;65.68
2268;BME280;11052;43.338;25.502;2023-05-22T11:05:38;100339.97;;;27.46;65.05
2268;BME280;11052;43.338;25.502;2023-05-22T11:08:34;100330.84;;;27.48;65.17
2268;BME280;11052;43.338;25.502;2023-05-22T11:11:11;100318.91;;;27.78;67.72
2268;BME280;11052;43.338;25.502;2023-05-22T11:13:39;100320.50;;;27.63;67.55
2268;BME280;11052;43.338;25.502;2023-05-22T11:16:08;100326.56;;;27.55;64.75
2268;BME280;11052;43.338;25.502;2023-05-22T11:18:37;100316.81;;;26.75;67.01
2268;BME280;11052;43.338;25.502;2023-05-22T11:21:08;100323.22;;;26.55;68.60
2268;BME280;11052;43.338;25.502;2023-05-22T11:23:36;100308.75;;;26.39;69.39
2268;BME280;11052;43.338;25.502;2023-05-22T11:26:16;100299.56;;;26.79;69.54
2268;BME280;11052;43.338;25.502;2023-05-22T11:28:48;100302.16;;;27.06;69.18
2268;BME280;11052;43.338;25.502;2023-05-22T11:31:16;100299.13;;;27.37;68.48
2268;BME280;11052;43.338;25.502;2023-05-22T11:33:45;100295.47;;;27.02;68.61
2268;BME280;11052;43.338;25.502;2023-05-22T11:36:13;100286.34;;;27.23;68.64
2268;BME280;11052;43.338;25.502;2023-05-22T11:38:41;100279.66;;;27.36;69.59
2268;BME280;11052;43.338;25.502;2023-05-22T11:41:09;100277.59;;;27.74;66.71
2268;BME280;11052;43.338;25.502;2023-05-22T11:43:37;100279.19;;;27.93;66.43
2268;BME280;11052;43.338;25.502;2023-05-22T11:46:05;100272.50;;;27.89;63.58
2268;BME280;11052;43.338;25.502;2023-05-22T11:48:34;100275.44;;;27.78;63.33
2268;BME280;11052;43.338;25.502;2023-05-22T11:51:03;100269.50;;;28.18;62.73
2268;BME280;11052;43.338;25.502;2023-05-22T11:53:30;100254.78;;;28.05;61.65
2268;BME280;11052;43.338;25.502;2023-05-22T11:56:02;100253.03;;;27.88;63.98
2268;BME280;11052;43.338;25.502;2023-05-22T11:58:30;100252.59;;;28.01;61.72
2268;BME280;11052;43.338;25.502;2023-05-22T12:01:01;100249.47;;;27.71;62.78
2268;BME280;11052;43.338;25.502;2023-05-22T12:03:29;100248.41;;;27.64;64.51
2268;BME280;11052;43.338;25.502;2023-05-22T12:05:56;100249.03;;;27.92;63.95
2268;BME280;11052;43.338;25.502;2023-05-22T12:08:25;100241.66;;;28.12;64.15
2268;BME280;11052;43.338;25.502;2023-05-22T12:10:52;100246.25;;;28.02;64.52
2268;BME280;11052;43.338;25.502;2023-05-22T12:13:24;100243.03;;;27.90;65.61
2268;BME280;11052;43.338;25.502;2023-05-22T12:15:53;100235.66;;;28.18;66.69
2268;BME280;11052;43.338;25.502;2023-05-22T12:18:21;100230.09;;;28.37;64.24
2268;BME280;11052;43.338;25.502;2023-05-22T12:20:52;100223.22;;;27.93;63.42
2268;BME280;11052;43.338;25.502;2023-05-22T12:23:21;100223.31;;;27.75;65.02
2268;BME280;11052;43.338;25.502;2023-05-22T12:25:57;100216.09;;;27.59;65.55
2268;BME280;11052;43.338;25.502;2023-05-22T12:28:25;100212.44;;;27.17;64.74
2268;BME280;11052;43.338;25.502;2023-05-22T12:30:53;100199.22;;;27.07;65.55
2268;BME280;11052;43.338;25.502;2023-05-22T12:33:25;100200.00;;;26.99;65.90
2268;BME280;11052;43.338;25.502;2023-05-22T12:35:52;100201.41;;;26.94;65.71
2268;BME280;11052;43.338;25.502;2023-05-22T12:38:23;100193.78;;;26.73;65.06
2268;BME280;11052;43.338;25.502;2023-05-22T12:40:52;100185.34;;;26.60;69.25
2268;BME280;11052;43.338;25.502;2023-05-22T12:43:24;100175.53;;;26.42;68.01
2268;BME280;11052;43.338;25.502;2023-05-22T12:45:51;100171.81;;;26.53;68.40
2268;BME280;11052;43.338;25.502;2023-05-22T12:48:18;100167.84;;;26.75;68.85
2268;BME280;11052;43.338;25.502;2023-05-22T12:50:46;100168.22;;;26.98;68.56
2268;BME280;11052;43.338;25.502;2023-05-22T12:53:13;100174.44;;;27.32;66.32
2268;BME280;11052;43.338;25.502;2023-05-22T12:55:42;100183.47;;;26.96;64.89